Time;durP1;ratioP1;P1;durP2;ratioP2;P2;SDS_P1;SDS_P2;PMS_P1;PMS_P2;Temp;Humidity;BMP_temperature;BMP_pressure;BME280_temperature;BME280_humidity;BME280_pressure;Samples;Min_cycle;Max_cycle;Signal;HPM_P1;HPM_P2
2023/07/25 00:01:36;;;;;;;4.90;3.05;;;;;;;;;;5013014;28;20096;-71
2023/07/25 00:04:02;;;;;;;4.72;3.25;;;;;;;;;;5012721;28;20030;-71
2023/07/25 00:06:30;;;;;;;6.00;2.97;;;;;;;;;;5012714;28;20049;-70
2023/07/25 00:08:56;;;;;;;6.10;3.33;;;;;;;;;;5012772;28;20026;-71
2023/07/25 00:11:22;;;;;;;6.40;2.88;;;;;;;;;;5012801;28;20052;-71
2023/07/25 00:13:49;;;;;;;4.00;2.70;;;;;;;;;;5012304;28;20053;-70
2023/07/25 00:16:15;;;;;;;5.13;3.53;;;;;;;;;;5012919;28;20416;-71
2023/07/25 00:18:41;;;;;;;4.93;3.40;;;;;;;;;;5012587;28;20096;-71
2023/07/25 00:21:07;;;;;;;5.45;3.00;;;;;;;;;;5012843;28;20022;-70
2023/07/25 00:23:33;;;;;;;5.13;3.38;;;;;;;;;;5013258;28;20026;-72
2023/07/25 00:25:59;;;;;;;4.75;2.95;;;;;;;;;;5012911;28;20048;-71
2023/07/25 00:28:25;;;;;;;3.47;2.75;;;;;;;;;;5011844;28;20030;-68
2023/07/25 00:30:51;;;;;;;4.25;3.15;;;;;;;;;;5012218;28;20032;-71
2023/07/25 00:33:17;;;;;;;4.78;3.20;;;;;;;;;;5012350;28;20030;-71
2023/07/25 00:35:50;;;;;;;4.65;3.28;;;;;;;;;;5012507;28;20026;-71
2023/07/25 00:38:16;;;;;;;4.82;3.10;;;;;;;;;;5009378;28;20489;-71
2023/07/25 00:40:42;;;;;;;3.47;3.08;;;;;;;;;;5012845;28;20026;-71
2023/07/25 00:43:08;;;;;;;7.47;3.38;;;;;;;;;;5012447;28;20017;-70
2023/07/25 00:45:34;;;;;;;3.10;2.80;;;;;;;;;;5012395;28;20185;-70
2023/07/25 00:48:00;;;;;;;4.95;3.30;;;;;;;;;;5010340;28;20113;-71
2023/07/25 00:50:26;;;;;;;4.53;3.10;;;;;;;;;;4994565;28;20033;-70
2023/07/25 00:52:57;;;;;;;4.43;3.15;;;;;;;;;;5012061;28;20022;-70
2023/07/25 00:55:23;;;;;;;4.00;3.20;;;;;;;;;;5011935;28;20029;-70
2023/07/25 00:57:49;;;;;;;3.70;3.03;;;;;;;;;;5011959;28;20022;-70
2023/07/25 01:00:15;;;;;;;6.88;3.50;;;;;;;;;;5012037;28;20022;-70
2023/07/25 01:02:41;;;;;;;3.95;2.63;;;;;;;;;;5011968;28;20033;-71
2023/07/25 01:05:07;;;;;;;6.60;3.17;;;;;;;;;;5011353;28;20025;-71
2023/07/25 01:07:33;;;;;;;6.68;3.05;;;;;;;;;;5011695;28;20033;-71
2023/07/25 01:09:59;;;;;;;3.28;2.90;;;;;;;;;;4994106;28;20033;-70
2023/07/25 01:12:25;;;;;;;3.72;2.95;;;;;;;;;;5011715;28;20030;-71
2023/07/25 01:14:51;;;;;;;4.32;3.15;;;;;;;;;;5012497;28;20022;-71
2023/07/25 01:17:19;;;;;;;5.40;3.13;;;;;;;;;;5011609;28;20105;-71
2023/07/25 01:19:48;;;;;;;7.13;2.90;;;;;;;;;;5011649;28;20024;-71
2023/07/25 01:22:14;;;;;;;4.82;3.10;;;;;;;;;;5011745;28;20053;-71
2023/07/25 01:24:46;;;;;;;4.75;2.95;;;;;;;;;;4993886;28;20072;-71
2023/07/25 01:27:16;;;;;;;3.00;2.35;;;;;;;;;;5011337;28;20040;-71
2023/07/25 01:29:42;;;;;;;8.98;2.90;;;;;;;;;;5002589;28;20570;-70
2023/07/25 01:32:09;;;;;;;5.63;2.88;;;;;;;;;;5004102;28;20076;-71
2023/07/25 01:34:35;;;;;;;4.22;2.90;;;;;;;;;;5011581;28;20053;-72
2023/07/25 01:37:01;;;;;;;3.55;2.53;;;;;;;;;;5011192;28;20022;-72
2023/07/25 01:39:27;;;;;;;4.75;2.63;;;;;;;;;;5004947;28;20510;-72
2023/07/25 01:41:53;;;;;;;6.28;3.15;;;;;;;;;;5009968;28;20024;-71
2023/07/25 01:44:19;;;;;;;7.13;2.70;;;;;;;;;;5011529;28;20041;-71
2023/07/25 01:46:45;;;;;;;5.10;2.83;;;;;;;;;;5009365;28;20096;-70
2023/07/25 01:49:12;;;;;;;2.95;2.40;;;;;;;;;;4993732;28;20133;-70
2023/07/25 01:51:38;;;;;;;4.57;2.55;;;;;;;;;;5011442;28;20034;-70
2023/07/25 01:54:04;;;;;;;5.82;2.75;;;;;;;;;;5011270;28;20097;-69
2023/07/25 01:56:30;;;;;;;4.47;2.67;;;;;;;;;;4993624;28;20022;-71
2023/07/25 01:58:56;;;;;;;5.78;2.70;;;;;;;;;;5011147;28;20130;-71
2023/07/25 02:01:22;;;;;;;4.45;2.22;;;;;;;;;;5011120;28;20042;-71
2023/07/25 02:03:48;;;;;;;3.75;2.70;;;;;;;;;;5003068;28;20418;-70
2023/07/25 02:06:14;;;;;;;4.45;2.83;;;;;;;;;;5011099;28;20030;-71
2023/07/25 02:08:40;;;;;;;3.90;2.45;;;;;;;;;;5011120;28;20032;-71
2023/07/25 02:11:06;;;;;;;4.85;3.00;;;;;;;;;;5011050;28;20037;-71
2023/07/25 02:13:32;;;;;;;4.60;2.67;;;;;;;;;;5011115;28;20026;-71
2023/07/25 02:15:58;;;;;;;5.65;2.83;;;;;;;;;;5010961;28;20026;-70
2023/07/25 02:18:24;;;;;;;6.90;2.92;;;;;;;;;;5013690;28;20425;-70
2023/07/25 02:20:50;;;;;;;2.90;2.30;;;;;;;;;;4997108;28;20084;-71
2023/07/25 02:23:16;;;;;;;5.13;3.00;;;;;;;;;;5009724;28;20026;-71
2023/07/25 02:25:42;;;;;;;5.55;2.60;;;;;;;;;;5012307;28;20018;-71
2023/07/25 02:28:08;;;;;;;6.65;3.13;;;;;;;;;;5014503;28;20497;-71
2023/07/25 02:30:34;;;;;;;3.80;2.83;;;;;;;;;;5014702;28;20022;-70
2023/07/25 02:33:00;;;;;;;3.60;3.08;;;;;;;;;;4997036;28;20056;-71
2023/07/25 02:35:26;;;;;;;7.05;3.60;;;;;;;;;;5014613;28;20030;-70
2023/07/25 02:37:52;;;;;;;3.95;2.65;;;;;;;;;;5014085;28;20033;-70
2023/07/25 02:40:18;;;;;;;4.55;2.53;;;;;;;;;;5014445;28;20018;-70
2023/07/25 02:42:44;;;;;;;4.55;2.60;;;;;;;;;;5014329;28;20397;-71
2023/07/25 02:45:10;;;;;;;3.75;2.50;;;;;;;;;;5014390;28;20037;-71
2023/07/25 02:47:36;;;;;;;3.25;2.95;;;;;;;;;;5012188;28;20029;-71
2023/07/25 02:50:02;;;;;;;8.50;2.80;;;;;;;;;;5014103;28;20092;-70
2023/07/25 02:52:28;;;;;;;4.50;2.78;;;;;;;;;;5014245;28;20026;-70
2023/07/25 02:54:54;;;;;;;4.25;2.78;;;;;;;;;;4996697;28;20463;-71
2023/07/25 02:57:20;;;;;;;6.60;3.20;;;;;;;;;;5013854;28;20099;-71
2023/07/25 02:59:46;;;;;;;5.40;2.60;;;;;;;;;;5014020;28;20022;-71
2023/07/25 03:02:12;;;;;;;7.10;2.70;;;;;;;;;;5014119;28;20045;-70
2023/07/25 03:04:38;;;;;;;4.15;2.90;;;;;;;;;;4996525;28;20037;-72
2023/07/25 03:07:04;;;;;;;6.60;2.80;;;;;;;;;;5013729;28;20014;-71
2023/07/25 03:09:30;;;;;;;10.32;5.20;;;;;;;;;;5013899;28;20041;-71
2023/07/25 03:11:56;;;;;;;5.55;2.78;;;;;;;;;;5014002;28;20022;-71
2023/07/25 03:14:22;;;;;;;3.92;2.80;;;;;;;;;;5014054;28;20018;-71
2023/07/25 03:16:49;;;;;;;3.58;2.60;;;;;;;;;;5005649;28;20025;-71
2023/07/25 03:19:15;;;;;;;5.13;2.45;;;;;;;;;;5001134;28;20121;-71
2023/07/25 03:21:41;;;;;;;5.60;3.05;;;;;;;;;;5011195;28;20389;-72
2023/07/25 03:24:07;;;;;;;6.07;3.50;;;;;;;;;;5014057;28;20022;-71
2023/07/25 03:26:33;;;;;;;5.45;2.78;;;;;;;;;;5015671;28;20025;-70
2023/07/25 03:28:59;;;;;;;8.65;3.10;;;;;;;;;;5016302;28;20026;-71
2023/07/25 03:31:25;;;;;;;7.85;2.70;;;;;;;;;;4998395;28;20018;-72
2023/07/25 03:33:52;;;;;;;8.15;2.67;;;;;;;;;;5016356;28;20028;-71
2023/07/25 03:36:18;;;;;;;8.02;2.67;;;;;;;;;;5018707;28;20029;-72
2023/07/25 03:38:44;;;;;;;6.90;2.92;;;;;;;;;;5018561;28;20022;-71
2023/07/25 03:41:10;;;;;;;5.28;3.03;;;;;;;;;;5017215;28;20473;-71
2023/07/25 03:43:36;;;;;;;5.38;2.50;;;;;;;;;;5017721;28;20033;-71
2023/07/25 03:46:02;;;;;;;7.57;3.33;;;;;;;;;;5002023;28;20045;-72
2023/07/25 03:48:28;;;;;;;6.82;2.90;;;;;;;;;;5006200;28;20022;-71
2023/07/25 03:50:54;;;;;;;10.38;3.63;;;;;;;;;;5013220;28;20116;-72
2023/07/25 03:53:20;;;;;;;6.72;2.90;;;;;;;;;;5013205;28;20137;-72
2023/07/25 03:55:46;;;;;;;4.97;2.70;;;;;;;;;;5013113;28;20028;-72
2023/07/25 03:58:12;;;;;;;7.75;3.10;;;;;;;;;;5012675;28;20018;-72
2023/07/25 04:00:38;;;;;;;8.38;2.97;;;;;;;;;;5013037;28;20021;-72
2023/07/25 04:03:04;;;;;;;7.93;4.05;;;;;;;;;;5012869;28;20021;-71
2023/07/25 04:05:30;;;;;;;8.38;3.33;;;;;;;;;;5013049;28;20358;-71
2023/07/25 04:07:56;;;;;;;7.22;3.30;;;;;;;;;;5012468;28;20026;-70
2023/07/25 04:10:22;;;;;;;9.00;3.28;;;;;;;;;;5013012;28;20025;-72
2023/07/25 04:12:48;;;;;;;6.07;3.03;;;;;;;;;;5013142;28;20093;-71
2023/07/25 04:15:14;;;;;;;4.18;2.80;;;;;;;;;;5012772;28;20047;-72
2023/07/25 04:17:40;;;;;;;10.02;3.38;;;;;;;;;;5004375;28;20485;-71
2023/07/25 04:20:07;;;;;;;7.88;2.88;;;;;;;;;;5012704;28;20049;-70
2023/07/25 04:22:33;;;;;;;6.53;3.00;;;;;;;;;;5012641;28;20097;-71
2023/07/25 04:24:59;;;;;;;7.97;3.17;;;;;;;;;;5012499;28;20461;-69
2023/07/25 04:27:25;;;;;;;7.85;3.38;;;;;;;;;;5012166;28;20113;-70
2023/07/25 04:29:51;;;;;;;5.63;2.60;;;;;;;;;;5012507;28;20026;-69
2023/07/25 04:32:17;;;;;;;4.53;2.88;;;;;;;;;;5012342;28;20441;-71
2023/07/25 04:34:43;;;;;;;7.10;2.75;;;;;;;;;;5012445;28;20045;-70
2023/07/25 04:37:09;;;;;;;7.75;2.25;;;;;;;;;;5012340;28;20474;-71
2023/07/25 04:39:35;;;;;;;7.28;2.92;;;;;;;;;;5011861;28;20029;-69
2023/07/25 04:42:01;;;;;;;8.70;2.63;;;;;;;;;;4994405;28;20025;-70
2023/07/25 04:44:27;;;;;;;4.20;2.53;;;;;;;;;;5012104;28;20469;-69
2023/07/25 04:46:52;;;;;;;5.30;2.53;;;;;;;;;;5001114;28;20022;-70
2023/07/25 04:49:18;;;;;;;3.35;2.45;;;;;;;;;;4992304;28;20022;-70
2023/07/25 04:51:44;;;;;;;9.18;3.35;;;;;;;;;;5003562;28;20022;-70
2023/07/25 04:54:10;;;;;;;2.90;2.30;;;;;;;;;;5012082;28;20030;-70
2023/07/25 04:56:40;;;;;;;9.35;2.80;;;;;;;;;;5007741;28;20497;-69
2023/07/25 04:59:06;;;;;;;6.85;2.70;;;;;;;;;;5011899;28;20018;-69
2023/07/25 05:01:32;;;;;;;5.70;2.50;;;;;;;;;;5003675;28;20616;-70
2023/07/25 05:03:58;;;;;;;6.03;2.92;;;;;;;;;;4993808;28;20014;-70
2023/07/25 05:06:24;;;;;;;5.50;3.03;;;;;;;;;;5000101;28;20050;-70
2023/07/25 05:08:50;;;;;;;5.97;2.83;;;;;;;;;;4993083;28;20069;-72
2023/07/25 05:11:16;;;;;;;4.28;3.05;;;;;;;;;;5010034;28;20028;-71
2023/07/25 05:13:42;;;;;;;7.15;2.92;;;;;;;;;;5009865;28;20098;-71
2023/07/25 05:16:08;;;;;;;7.07;2.88;;;;;;;;;;5009752;28;20109;-71
2023/07/25 05:18:34;;;;;;;6.30;2.90;;;;;;;;;;5009750;28;20478;-73
2023/07/25 05:21:00;;;;;;;4.82;2.90;;;;;;;;;;5009862;28;20039;-71
2023/07/25 05:23:26;;;;;;;4.50;2.78;;;;;;;;;;5010402;28;20022;-69
2023/07/25 05:25:52;;;;;;;7.90;3.40;;;;;;;;;;5011347;28;20679;-69
2023/07/25 05:28:19;;;;;;;7.25;3.25;;;;;;;;;;5020268;23;20084;-74
2023/07/25 05:30:45;;;;;;;5.65;2.88;;;;;;;;;;5002206;28;20445;-75
2023/07/25 05:33:11;;;;;;;9.93;3.17;;;;;;;;;;5003876;28;20442;-75
2023/07/25 05:35:37;;;;;;;5.43;2.63;;;;;;;;;;5011009;28;20029;-75
2023/07/25 05:38:07;;;;;;;8.60;3.20;;;;;;;;;;5009516;28;20075;-75
2023/07/25 05:40:33;;;;;;;7.53;3.07;;;;;;;;;;5011539;28;20017;-75
2023/07/25 05:42:59;;;;;;;8.25;3.05;;;;;;;;;;5011131;28;20014;-75
2023/07/25 05:45:25;;;;;;;5.10;2.63;;;;;;;;;;5011655;28;20014;-75
2023/07/25 05:47:51;;;;;;;9.30;2.50;;;;;;;;;;5008768;28;20022;-74
2023/07/25 05:50:17;;;;;;;5.32;3.05;;;;;;;;;;5011514;28;20119;-75
2023/07/25 05:52:43;;;;;;;10.27;2.88;;;;;;;;;;5014888;28;20018;-75
2023/07/25 05:55:09;;;;;;;6.68;2.67;;;;;;;;;;5015188;28;20022;-74
2023/07/25 05:57:35;;;;;;;6.55;2.63;;;;;;;;;;5012421;28;20401;-74
2023/07/25 06:00:01;;;;;;;7.93;2.75;;;;;;;;;;5005079;28;20032;-74
2023/07/25 06:02:27;;;;;;;7.10;2.95;;;;;;;;;;5008420;28;20022;-74
2023/07/25 06:04:53;;;;;;;7.32;3.50;;;;;;;;;;5013511;28;20052;-74
2023/07/25 06:07:19;;;;;;;10.68;3.55;;;;;;;;;;5008733;28;20022;-74
2023/07/25 06:09:45;;;;;;;7.20;3.15;;;;;;;;;;5014615;28;20026;-73
2023/07/25 06:12:11;;;;;;;7.35;2.72;;;;;;;;;;5014912;28;20052;-74
2023/07/25 06:14:37;;;;;;;7.05;3.13;;;;;;;;;;5013487;28;20017;-73
2023/07/25 06:17:04;;;;;;;10.27;3.00;;;;;;;;;;5013944;28;20022;-74
2023/07/25 06:19:30;;;;;;;7.25;3.20;;;;;;;;;;5007327;28;20025;-74
2023/07/25 06:21:56;;;;;;;5.38;2.85;;;;;;;;;;5011429;28;20454;-74
2023/07/25 06:24:23;;;;;;;6.80;2.97;;;;;;;;;;5012882;28;20018;-74
2023/07/25 06:26:49;;;;;;;6.25;2.97;;;;;;;;;;5011157;28;20397;-74
2023/07/25 06:29:15;;;;;;;9.20;3.35;;;;;;;;;;5012428;28;20034;-73
2023/07/25 06:31:41;;;;;;;8.02;3.28;;;;;;;;;;5013029;28;20022;-76
2023/07/25 06:34:07;;;;;;;5.50;2.78;;;;;;;;;;5010432;28;20589;-75
2023/07/25 06:36:33;;;;;;;11.10;3.45;;;;;;;;;;5010415;28;20107;-77
2023/07/25 06:38:59;;;;;;;6.18;2.85;;;;;;;;;;5035199;22;20080;-77
2023/07/25 06:41:25;;;;;;;3.90;2.97;;;;;;;;;;5014281;28;20022;-76
2023/07/25 06:43:51;;;;;;;8.32;2.80;;;;;;;;;;5013595;28;20029;-76
2023/07/25 06:46:17;;;;;;;5.22;2.95;;;;;;;;;;5014570;28;20470;-76
2023/07/25 06:48:43;;;;;;;7.18;3.25;;;;;;;;;;5003957;28;20019;-76
2023/07/25 06:51:09;;;;;;;9.00;3.35;;;;;;;;;;4997613;28;20033;-75
2023/07/25 06:53:35;;;;;;;7.82;2.90;;;;;;;;;;5010937;28;20457;-76
2023/07/25 06:56:01;;;;;;;8.23;3.05;;;;;;;;;;5010457;28;20089;-75
2023/07/25 06:58:27;;;;;;;9.55;3.22;;;;;;;;;;5002259;28;20473;-75
2023/07/25 07:00:53;;;;;;;5.35;3.05;;;;;;;;;;5010437;28;20105;-75
2023/07/25 07:03:19;;;;;;;6.25;3.60;;;;;;;;;;4997837;28;20101;-75
2023/07/25 07:05:52;;;;;;;5.18;3.35;;;;;;;;;;5004049;28;20026;-75
2023/07/25 07:08:18;;;;;;;9.10;3.50;;;;;;;;;;4999310;28;20022;-75
2023/07/25 07:10:44;;;;;;;5.85;3.42;;;;;;;;;;5013763;28;20365;-75
2023/07/25 07:13:10;;;;;;;12.10;3.63;;;;;;;;;;5010791;28;20024;-75
2023/07/25 07:15:36;;;;;;;4.45;2.90;;;;;;;;;;5003571;28;20030;-75
2023/07/25 07:18:02;;;;;;;7.55;3.47;;;;;;;;;;5003498;28;20505;-76
2023/07/25 07:20:28;;;;;;;5.53;3.30;;;;;;;;;;4994280;28;20386;-75
2023/07/25 07:22:54;;;;;;;9.15;4.00;;;;;;;;;;4998226;28;20025;-76
2023/07/25 07:25:20;;;;;;;6.28;3.58;;;;;;;;;;5007132;28;20019;-76
2023/07/25 07:27:46;;;;;;;9.13;3.67;;;;;;;;;;4993617;28;20465;-77
2023/07/25 07:30:12;;;;;;;8.90;3.50;;;;;;;;;;5005649;28;20076;-75
2023/07/25 07:32:38;;;;;;;7.53;3.55;;;;;;;;;;4998002;28;20081;-76
2023/07/25 07:35:04;;;;;;;9.57;3.50;;;;;;;;;;5005196;28;20033;-76
2023/07/25 07:37:30;;;;;;;6.28;3.67;;;;;;;;;;5004986;28;20026;-76
2023/07/25 07:39:56;;;;;;;7.72;3.65;;;;;;;;;;5012409;28;20021;-75
2023/07/25 07:42:22;;;;;;;9.38;3.78;;;;;;;;;;5003559;28;20033;-76
2023/07/25 07:44:48;;;;;;;9.48;3.17;;;;;;;;;;5011637;28;20627;-76
2023/07/25 07:47:14;;;;;;;9.07;3.28;;;;;;;;;;5009311;28;20100;-76
2023/07/25 07:49:40;;;;;;;10.77;3.50;;;;;;;;;;5003375;28;20518;-76
2023/07/25 07:52:06;;;;;;;6.43;3.25;;;;;;;;;;4995726;28;20093;-75
2023/07/25 07:54:33;;;;;;;6.22;2.97;;;;;;;;;;5004068;28;20018;-75
2023/07/25 07:56:59;;;;;;;11.15;3.45;;;;;;;;;;5008891;28;20211;-75
2023/07/25 07:59:25;;;;;;;8.02;3.47;;;;;;;;;;4999290;28;20513;-75
2023/07/25 08:01:51;;;;;;;4.40;2.65;;;;;;;;;;5003720;28;20020;-75
2023/07/25 08:04:17;;;;;;;6.82;3.03;;;;;;;;;;5006422;28;20504;-75
2023/07/25 08:06:43;;;;;;;8.82;3.38;;;;;;;;;;5012713;28;20628;-75
2023/07/25 08:09:09;;;;;;;10.15;3.40;;;;;;;;;;5004716;28;20065;-74
2023/07/25 08:11:35;;;;;;;10.35;3.53;;;;;;;;;;4996027;28;20061;-75
2023/07/25 08:14:01;;;;;;;4.65;3.42;;;;;;;;;;5003750;28;20030;-75
2023/07/25 08:16:27;;;;;;;8.43;3.67;;;;;;;;;;4997831;28;20110;-75
2023/07/25 08:18:53;;;;;;;7.10;3.40;;;;;;;;;;5002759;28;20054;-75
2023/07/25 08:21:19;;;;;;;7.35;3.20;;;;;;;;;;5004711;28;20045;-75
2023/07/25 08:23:45;;;;;;;6.28;2.90;;;;;;;;;;4996650;28;20415;-76
2023/07/25 08:26:11;;;;;;;7.30;3.40;;;;;;;;;;5004758;28;20021;-75
2023/07/25 08:28:37;;;;;;;8.80;3.28;;;;;;;;;;5012604;28;20492;-74
2023/07/25 08:31:07;;;;;;;6.07;3.30;;;;;;;;;;4996485;28;20113;-75
2023/07/25 08:33:34;;;;;;;6.00;3.30;;;;;;;;;;4998549;28;20455;-75
2023/07/25 08:36:01;;;;;;;7.85;3.15;;;;;;;;;;5004280;28;20034;-75
2023/07/25 08:38:27;;;;;;;8.30;3.28;;;;;;;;;;4996238;28;20078;-75
2023/07/25 08:41:04;;;;;;;3.33;3.03;;;;;;;;;;5008722;28;20385;-75
2023/07/25 08:43:31;;;;;;;8.85;2.90;;;;;;;;;;4999543;28;20022;-75
2023/07/25 08:45:58;;;;;;;6.32;2.97;;;;;;;;;;4993903;28;20025;-76
2023/07/25 08:48:26;;;;;;;5.55;2.80;;;;;;;;;;5000734;28;20029;-76
2023/07/25 08:50:56;;;;;;;7.20;3.05;;;;;;;;;;4988840;28;20030;-75
2023/07/25 08:53:24;;;;;;;7.07;3.20;;;;;;;;;;4998162;28;20128;-75
2023/07/25 08:55:50;;;;;;;9.93;3.30;;;;;;;;;;5012202;28;20393;-75
2023/07/25 08:58:16;;;;;;;3.20;2.70;;;;;;;;;;5006203;28;20425;-75
2023/07/25 09:00:43;;;;;;;8.13;3.05;;;;;;;;;;5013028;28;20068;-76
2023/07/25 09:03:09;;;;;;;4.03;2.45;;;;;;;;;;5005845;28;20019;-76
2023/07/25 09:05:35;;;;;;;6.05;2.30;;;;;;;;;;4999240;28;20058;-76
2023/07/25 09:08:01;;;;;;;6.68;2.70;;;;;;;;;;5012600;28;20072;-75
2023/07/25 09:10:28;;;;;;;5.82;2.53;;;;;;;;;;5013929;28;20033;-75
2023/07/25 09:12:54;;;;;;;8.30;2.75;;;;;;;;;;5004007;28;20096;-75
2023/07/25 09:15:20;;;;;;;4.63;2.78;;;;;;;;;;4997632;28;20121;-75
2023/07/25 09:17:47;;;;;;;5.57;2.85;;;;;;;;;;5011891;28;20078;-76
2023/07/25 09:20:13;;;;;;;7.88;2.85;;;;;;;;;;5004279;28;20014;-75
2023/07/25 09:22:39;;;;;;;4.45;2.45;;;;;;;;;;5004293;28;20019;-76
2023/07/25 09:25:08;;;;;;;4.82;2.50;;;;;;;;;;5011379;28;20022;-75
2023/07/25 09:27:34;;;;;;;4.25;2.20;;;;;;;;;;5010953;28;20022;-75
2023/07/25 09:30:01;;;;;;;4.68;2.30;;;;;;;;;;5003138;28;20106;-76
2023/07/25 09:32:28;;;;;;;4.30;2.42;;;;;;;;;;5011501;28;20037;-76
2023/07/25 09:34:58;;;;;;;5.72;2.28;;;;;;;;;;5002953;28;20033;-75
2023/07/25 09:37:25;;;;;;;3.75;2.40;;;;;;;;;;4996520;28;20038;-76
2023/07/25 09:39:51;;;;;;;4.10;2.30;;;;;;;;;;4990315;28;20041;-77
2023/07/25 09:42:21;;;;;;;3.47;2.15;;;;;;;;;;5004488;28;20026;-77
2023/07/25 09:44:48;;;;;;;3.38;2.55;;;;;;;;;;5000554;28;20025;-77
2023/07/25 09:47:14;;;;;;;6.20;2.75;;;;;;;;;;4998378;28;20018;-77
2023/07/25 09:49:48;;;;;;;2.53;2.00;;;;;;;;;;4999431;28;20018;-76
2023/07/25 09:52:14;;;;;;;7.45;3.15;;;;;;;;;;4997156;28;20101;-76
2023/07/25 09:54:41;;;;;;;4.20;2.70;;;;;;;;;;4995413;28;20030;-76
2023/07/25 09:57:07;;;;;;;3.30;2.22;;;;;;;;;;4991366;28;20402;-75
2023/07/25 09:59:34;;;;;;;5.93;2.13;;;;;;;;;;5005259;28;20379;-76
2023/07/25 10:02:00;;;;;;;7.07;2.70;;;;;;;;;;5008841;28;20027;-76
2023/07/25 10:04:27;;;;;;;3.35;2.08;;;;;;;;;;5006116;28;20505;-76
2023/07/25 10:06:53;;;;;;;4.65;2.40;;;;;;;;;;5009677;28;20371;-76
2023/07/25 10:09:19;;;;;;;3.22;2.28;;;;;;;;;;5004729;28;20576;-76
2023/07/25 10:11:47;;;;;;;4.63;2.60;;;;;;;;;;5010756;28;20097;-76
2023/07/25 10:14:13;;;;;;;5.40;3.00;;;;;;;;;;5003910;28;20022;-76
2023/07/25 10:16:40;;;;;;;7.20;2.47;;;;;;;;;;5002117;28;20105;-76
2023/07/25 10:19:06;;;;;;;5.82;2.45;;;;;;;;;;5005565;28;20096;-73
2023/07/25 10:21:50;;;;;;;6.68;2.20;;;;;;;;;;4996590;28;20018;-74
2023/07/25 10:24:16;;;;;;;3.05;2.28;;;;;;;;;;4995663;28;20025;-74
2023/07/25 10:27:12;;;;;;;4.85;2.67;;;;;;;;;;4999791;28;20116;-74
2023/07/25 10:29:46;;;;;;;6.47;2.58;;;;;;;;;;4991740;28;20543;-76
2023/07/25 10:32:17;;;;;;;6.18;2.40;;;;;;;;;;5000902;28;20038;-74
2023/07/25 10:35:02;;;;;;;4.35;2.72;;;;;;;;;;5003043;28;20053;-75
2023/07/25 10:37:30;;;;;;;4.95;2.47;;;;;;;;;;4997665;28;20023;-74
2023/07/25 10:40:23;;;;;;;7.35;2.92;;;;;;;;;;5011941;28;20103;-74
2023/07/25 10:42:51;;;;;;;5.43;2.80;;;;;;;;;;5004513;28;20018;-74
2023/07/25 10:45:29;;;;;;;4.50;2.40;;;;;;;;;;5000464;28;20029;-74
2023/07/25 10:47:58;;;;;;;5.80;2.63;;;;;;;;;;5010161;28;20025;-74
2023/07/25 10:50:27;;;;;;;6.40;2.90;;;;;;;;;;4994937;28;20022;-75
2023/07/25 10:52:54;;;;;;;7.00;3.15;;;;;;;;;;5001469;28;20077;-75
2023/07/25 10:55:20;;;;;;;9.23;3.45;;;;;;;;;;5002902;28;20045;-75
2023/07/25 10:58:05;;;;;;;3.75;2.95;;;;;;;;;;5001058;28;20026;-74
2023/07/25 11:00:35;;;;;;;8.13;3.35;;;;;;;;;;5008037;28;20025;-75
2023/07/25 11:03:21;;;;;;;5.85;2.97;;;;;;;;;;5012810;28;20113;-74
2023/07/25 11:05:47;;;;;;;6.45;4.88;;;;;;;;;;5014329;28;20088;-75
2023/07/25 11:08:14;;;;;;;6.82;2.47;;;;;;;;;;5006095;28;20523;-76
2023/07/25 11:10:41;;;;;;;4.78;3.00;;;;;;;;;;4998423;28;20030;-76
2023/07/25 11:13:08;;;;;;;8.98;2.90;;;;;;;;;;5001255;28;20023;-75
2023/07/25 11:15:35;;;;;;;6.55;3.00;;;;;;;;;;5002528;28;20030;-74
2023/07/25 11:18:09;;;;;;;6.30;3.25;;;;;;;;;;5000984;28;20030;-77
2023/07/25 11:20:35;;;;;;;8.27;2.70;;;;;;;;;;4994571;28;20030;-76
2023/07/25 11:23:02;;;;;;;6.00;2.67;;;;;;;;;;5001227;28;20448;-74
2023/07/25 11:25:31;;;;;;;8.02;3.03;;;;;;;;;;5001057;28;20117;-75
2023/07/25 11:27:57;;;;;;;3.33;2.42;;;;;;;;;;5007258;23;20093;-70
2023/07/25 11:30:23;;;;;;;5.75;3.03;;;;;;;;;;4976402;28;20038;-72
2023/07/25 11:32:50;;;;;;;7.05;2.97;;;;;;;;;;4977600;28;20019;-72
2023/07/25 11:35:16;;;;;;;3.17;2.85;;;;;;;;;;4975832;28;20058;-72
2023/07/25 11:37:43;;;;;;;5.82;2.83;;;;;;;;;;4976330;28;20045;-72
2023/07/25 11:40:15;;;;;;;4.70;3.00;;;;;;;;;;4977050;28;20384;-72
2023/07/25 11:42:45;;;;;;;8.10;2.85;;;;;;;;;;4976130;28;20023;-72
2023/07/25 11:45:11;;;;;;;6.00;2.80;;;;;;;;;;4976238;28;20483;-72
2023/07/25 11:47:41;;;;;;;5.40;2.67;;;;;;;;;;4976424;28;20026;-72
2023/07/25 11:50:08;;;;;;;5.00;2.88;;;;;;;;;;4975989;28;20039;-73
2023/07/25 11:52:34;;;;;;;3.83;2.90;;;;;;;;;;4975200;28;20113;-72
2023/07/25 11:55:01;;;;;;;5.20;2.85;;;;;;;;;;4975251;28;20026;-72
2023/07/25 11:57:27;;;;;;;9.50;2.95;;;;;;;;;;4974235;28;20033;-72
2023/07/25 11:59:54;;;;;;;5.60;3.00;;;;;;;;;;4989229;28;20142;-72
2023/07/25 12:02:22;;;;;;;3.70;3.00;;;;;;;;;;4974356;28;20022;-72
2023/07/25 12:04:48;;;;;;;5.00;3.20;;;;;;;;;;4974587;28;20034;-72
2023/07/25 12:07:15;;;;;;;5.68;2.70;;;;;;;;;;4973955;28;20047;-72
2023/07/25 12:09:48;;;;;;;5.30;2.75;;;;;;;;;;4973822;28;20023;-71
2023/07/25 12:12:14;;;;;;;3.80;2.83;;;;;;;;;;4973964;28;20074;-72
2023/07/25 12:14:41;;;;;;;4.82;3.10;;;;;;;;;;4973951;28;20039;-72
2023/07/25 12:17:07;;;;;;;8.27;3.00;;;;;;;;;;4973786;28;20031;-72
2023/07/25 12:19:33;;;;;;;7.90;3.10;;;;;;;;;;4973658;28;20027;-71
2023/07/25 12:22:07;;;;;;;5.65;2.63;;;;;;;;;;4988370;28;20073;-72
2023/07/25 12:24:40;;;;;;;4.55;3.08;;;;;;;;;;4974012;28;20387;-72
2023/07/25 12:27:16;;;;;;;5.22;3.10;;;;;;;;;;4973607;28;20027;-72
2023/07/25 12:29:42;;;;;;;3.85;2.95;;;;;;;;;;4972871;28;20061;-72
2023/07/25 12:32:08;;;;;;;5.82;3.20;;;;;;;;;;4973303;28;20034;-72
2023/07/25 12:34:34;;;;;;;9.27;3.50;;;;;;;;;;4973542;28;20050;-74
2023/07/25 12:37:03;;;;;;;4.40;3.17;;;;;;;;;;4973423;28;20110;-74
2023/07/25 12:39:29;;;;;;;4.25;3.10;;;;;;;;;;4973489;28;20030;-72
2023/07/25 12:41:55;;;;;;;3.88;2.80;;;;;;;;;;4973281;28;20034;-71
2023/07/25 12:44:22;;;;;;;5.30;2.80;;;;;;;;;;4973296;28;20105;-72
2023/07/25 12:46:48;;;;;;;6.55;2.92;;;;;;;;;;4987886;28;20050;-72
2023/07/25 12:49:14;;;;;;;4.38;2.70;;;;;;;;;;4973067;28;20031;-72
2023/07/25 12:51:40;;;;;;;5.10;2.88;;;;;;;;;;4972308;28;20053;-71
2023/07/25 12:54:06;;;;;;;3.63;2.22;;;;;;;;;;4973557;28;20027;-72
2023/07/25 12:56:32;;;;;;;9.63;2.45;;;;;;;;;;4973023;28;20062;-70
2023/07/25 12:58:58;;;;;;;3.17;2.60;;;;;;;;;;4972988;28;20481;-71
2023/07/25 13:01:24;;;;;;;3.05;2.40;;;;;;;;;;4972670;28;20059;-73
2023/07/25 13:03:50;;;;;;;4.22;2.40;;;;;;;;;;4971621;28;20517;-72
2023/07/25 13:06:16;;;;;;;6.53;2.58;;;;;;;;;;4972920;28;20031;-73
2023/07/25 13:08:42;;;;;;;5.60;2.97;;;;;;;;;;4970929;28;20029;-72
2023/07/25 13:11:08;;;;;;;7.57;2.75;;;;;;;;;;4972398;28;20074;-72
2023/07/25 13:13:34;;;;;;;2.70;2.10;;;;;;;;;;4972738;28;20034;-72
2023/07/25 13:16:03;;;;;;;4.32;2.58;;;;;;;;;;4982410;28;20037;-72
2023/07/25 13:18:29;;;;;;;6.95;2.67;;;;;;;;;;4982236;28;20065;-73
2023/07/25 13:20:55;;;;;;;3.15;2.65;;;;;;;;;;4992147;28;20022;-72
2023/07/25 13:23:21;;;;;;;6.30;2.53;;;;;;;;;;4991619;28;20360;-72
2023/07/25 13:25:47;;;;;;;5.95;2.85;;;;;;;;;;5006325;28;20033;-72
2023/07/25 13:28:16;;;;;;;9.07;3.03;;;;;;;;;;4991053;28;20026;-72
2023/07/25 13:30:42;;;;;;;5.32;3.08;;;;;;;;;;4991560;28;20031;-72
2023/07/25 13:33:08;;;;;;;3.50;2.60;;;;;;;;;;4992121;28;20109;-73
2023/07/25 13:35:34;;;;;;;5.32;2.95;;;;;;;;;;5006707;28;20044;-72
2023/07/25 13:38:02;;;;;;;4.78;3.03;;;;;;;;;;4991694;28;20393;-71
2023/07/25 13:40:28;;;;;;;3.40;3.10;;;;;;;;;;4991829;28;20034;-71
2023/07/25 13:42:54;;;;;;;5.40;3.20;;;;;;;;;;4992263;28;20033;-72
2023/07/25 13:45:20;;;;;;;3.35;3.03;;;;;;;;;;4991782;28;20109;-72
2023/07/25 13:47:46;;;;;;;4.88;3.83;;;;;;;;;;4991446;28;20026;-72
2023/07/25 13:50:12;;;;;;;5.32;4.68;;;;;;;;;;4992146;28;20455;-73
2023/07/25 13:52:38;;;;;;;8.90;4.90;;;;;;;;;;4991805;28;20057;-72
2023/07/25 13:55:05;;;;;;;6.63;5.88;;;;;;;;;;4991882;28;20048;-72
2023/07/25 13:57:31;;;;;;;7.82;5.07;;;;;;;;;;4991468;28;20575;-73
2023/07/25 13:59:57;;;;;;;5.45;4.88;;;;;;;;;;4991908;28;20521;-73
2023/07/25 14:02:23;;;;;;;7.65;6.13;;;;;;;;;;4992142;28;20025;-73
2023/07/25 14:04:49;;;;;;;8.10;5.40;;;;;;;;;;4991913;28;20150;-74
2023/07/25 14:07:15;;;;;;;6.15;5.45;;;;;;;;;;4991421;28;20439;-73
2023/07/25 14:09:41;;;;;;;9.18;6.20;;;;;;;;;;4991513;28;20077;-73
2023/07/25 14:12:07;;;;;;;9.02;6.13;;;;;;;;;;4992452;28;20022;-72
2023/07/25 14:14:33;;;;;;;9.80;6.45;;;;;;;;;;4995298;28;20027;-72
2023/07/25 14:17:01;;;;;;;8.05;6.30;;;;;;;;;;4995233;28;20037;-72
2023/07/25 14:19:27;;;;;;;6.95;6.25;;;;;;;;;;5010467;28;20454;-72
2023/07/25 14:21:54;;;;;;;11.60;7.40;;;;;;;;;;4995355;28;20501;-72
2023/07/25 14:24:20;;;;;;;9.75;7.88;;;;;;;;;;4995289;28;20404;-74
2023/07/25 14:26:46;;;;;;;11.05;7.28;;;;;;;;;;4994959;28;20088;-73
2023/07/25 14:29:12;;;;;;;7.40;6.70;;;;;;;;;;4994827;28;20080;-73
2023/07/25 14:31:38;;;;;;;9.35;6.38;;;;;;;;;;4995243;28;20566;-72
2023/07/25 14:34:04;;;;;;;11.15;8.57;;;;;;;;;;4995247;28;20446;-73
2023/07/25 14:36:30;;;;;;;8.45;7.18;;;;;;;;;;5010043;28;20058;-72
2023/07/25 14:38:56;;;;;;;10.00;7.25;;;;;;;;;;4994929;28;20435;-73
2023/07/25 14:41:22;;;;;;;9.52;7.22;;;;;;;;;;4995008;28;20030;-73